createdAt,value
2018-01-19T00:00:55.159Z,16.40
2018-01-19T00:03:24.967Z,16.13
2018-01-19T00:05:55.229Z,11.37
2018-01-19T00:08:26.281Z,6.40
2018-01-19T00:10:55.522Z,6.27
2018-01-19T00:13:25.169Z,6.60
2018-01-19T00:15:56.312Z,6.90
2018-01-19T00:18:25.859Z,9.13
2018-01-19T00:20:56.120Z,8.33
2018-01-19T00:23:25.644Z,9.00
2018-01-19T00:25:55.904Z,9.03
2018-01-19T00:28:25.395Z,10.03
2018-01-19T00:30:55.287Z,11.43
2018-01-19T00:33:28.069Z,10.97
2018-01-19T00:35:57.619Z,10.07
2018-01-19T00:38:27.119Z,11.17
2018-01-19T00:40:57.406Z,15.03
2018-01-19T00:43:26.904Z,17.77
2018-01-19T00:45:56.834Z,17.83
2018-01-19T00:48:27.105Z,17.27
2018-01-19T00:50:56.668Z,18.73
2018-01-19T00:53:26.176Z,18.23
2018-01-19T00:55:55.846Z,17.03
2018-01-19T00:58:25.335Z,20.03
2018-01-19T01:00:54.848Z,19.47
2018-01-19T01:03:26.712Z,19.73
2018-01-19T01:05:56.531Z,21.80
2018-01-19T01:08:26.017Z,23.33
2018-01-19T01:10:55.539Z,23.10
2018-01-19T01:13:26.968Z,23.43
2018-01-19T01:15:57.627Z,24.77
2018-01-19T01:18:28.780Z,27.40
2018-01-19T01:20:58.731Z,27.43
2018-01-19T01:23:28.235Z,26.67
2018-01-19T01:25:57.787Z,27.40
2018-01-19T01:28:27.295Z,27.73
2018-01-19T01:30:56.600Z,28.63
2018-01-19T01:33:26.125Z,28.80
2018-01-19T01:35:56.361Z,31.20
2018-01-19T01:38:26.975Z,28.10
2018-01-19T01:40:56.449Z,28.43
2018-01-19T01:43:25.981Z,30.10
2018-01-19T01:45:55.465Z,31.10
2018-01-19T01:48:24.626Z,30.43
2018-01-19T01:50:54.168Z,31.90
2018-01-19T01:53:23.866Z,30.53
2018-01-19T01:55:53.447Z,29.10
2018-01-19T01:58:24.622Z,30.73
2018-01-19T02:00:54.232Z,30.53
2018-01-19T02:03:26.230Z,28.37
2018-01-19T02:05:56.487Z,31.93
2018-01-19T02:08:26.011Z,30.20
2018-01-19T02:10:55.518Z,29.90
2018-01-19T02:13:26.452Z,30.37
2018-01-19T02:15:56.042Z,31.60
2018-01-19T02:18:25.593Z,30.50
2018-01-19T02:20:55.145Z,30.13
2018-01-19T02:23:26.531Z,30.43
2018-01-19T02:25:56.028Z,30.97
2018-01-19T02:28:25.513Z,30.97
2018-01-19T02:30:55.772Z,31.30
2018-01-19T02:33:26.053Z,30.30
2018-01-19T02:35:55.563Z,30.40
2018-01-19T02:38:25.271Z,28.10
2018-01-19T02:40:54.847Z,30.53
2018-01-19T02:43:26.659Z,30.17
2018-01-19T02:45:56.331Z,29.53
2018-01-19T02:48:27.321Z,28.20
2018-01-19T02:50:57.103Z,26.97
2018-01-19T02:53:26.597Z,25.20
2018-01-19T02:55:56.131Z,24.10
2018-01-19T02:58:25.625Z,20.43
2018-01-19T03:00:55.133Z,19.50
2018-01-19T03:03:27.227Z,19.77
2018-01-19T03:05:56.709Z,17.57
2018-01-19T03:08:26.212Z,18.10
2018-01-19T03:10:56.136Z,18.20
2018-01-19T03:13:25.856Z,17.90
2018-01-19T03:15:55.345Z,19.03
2018-01-19T03:18:24.890Z,20.33
2018-01-19T03:20:56.634Z,19.13
2018-01-19T03:23:26.140Z,21.33
2018-01-19T03:25:55.643Z,23.27
2018-01-19T03:28:25.139Z,20.77
2018-01-19T03:30:55.397Z,21.47
2018-01-19T03:33:24.958Z,21.73
2018-01-19T03:35:56.844Z,22.50
2018-01-19T03:38:26.348Z,18.87
2018-01-19T03:40:55.881Z,20.23
2018-01-19T03:43:25.429Z,18.63
2018-01-19T03:45:54.931Z,16.33
2018-01-19T03:48:26.286Z,16.80
2018-01-19T03:50:55.771Z,13.77
2018-01-19T03:53:25.302Z,14.87
2018-01-19T03:55:54.634Z,14.90
2018-01-19T03:58:23.950Z,15.00
2018-01-19T04:00:55.798Z,14.50
2018-01-19T04:03:25.271Z,15.07
2018-01-19T04:05:56.818Z,13.67
2018-01-19T04:08:26.379Z,14.27
2018-01-19T04:10:55.900Z,11.77
2018-01-19T04:13:25.432Z,9.80
2018-01-19T04:15:54.947Z,9.30
2018-01-19T04:18:26.600Z,9.27
2018-01-19T04:20:56.351Z,8.27
2018-01-19T04:23:25.853Z,8.03
2018-01-19T04:25:55.337Z,8.33
2018-01-19T04:28:24.879Z,8.20
2018-01-19T04:30:55.328Z,7.90
2018-01-19T04:33:24.832Z,7.70
2018-01-19T04:35:55.092Z,5.83
2018-01-19T04:38:27.366Z,6.73
2018-01-19T04:40:57.021Z,6.87
2018-01-19T04:43:26.562Z,8.13
2018-01-19T04:45:55.888Z,6.97
2018-01-19T04:48:25.272Z,6.53
2018-01-19T04:50:57.540Z,6.23
2018-01-19T04:53:27.299Z,5.43
2018-01-19T04:55:57.344Z,5.83
2018-01-19T04:58:26.632Z,5.30
2018-01-19T05:00:56.132Z,6.40
2018-01-19T05:03:26.389Z,5.40
2018-01-19T05:05:55.919Z,6.30
2018-01-19T05:08:25.449Z,6.10
2018-01-19T05:10:54.991Z,6.40
2018-01-19T05:13:26.623Z,6.90
2018-01-19T05:15:56.584Z,6.73
2018-01-19T05:18:27.133Z,6.93
2018-01-19T05:20:56.624Z,6.73
2018-01-19T05:23:26.111Z,7.17
2018-01-19T05:25:55.660Z,7.33
2018-01-19T05:28:26.148Z,7.63
2018-01-19T05:30:55.796Z,7.73
2018-01-19T05:33:25.415Z,7.90
2018-01-19T05:35:54.906Z,8.00
2018-01-19T05:38:25.084Z,8.27
2018-01-19T05:40:58.060Z,8.57
2018-01-19T05:43:27.609Z,7.67
2018-01-19T05:45:58.147Z,7.67
2018-01-19T05:48:27.746Z,7.87
2018-01-19T05:50:57.226Z,8.33
2018-01-19T05:53:27.179Z,8.63
2018-01-19T05:55:56.697Z,9.53
2018-01-19T05:58:26.192Z,9.07
2018-01-19T06:00:55.676Z,9.63
2018-01-19T06:03:25.181Z,7.97
2018-01-19T06:05:55.593Z,9.23
2018-01-19T06:08:24.960Z,10.17
2018-01-19T06:10:56.720Z,10.67
2018-01-19T06:13:26.195Z,9.87
2018-01-19T06:15:55.726Z,10.17
2018-01-19T06:18:25.223Z,9.73
2018-01-19T06:20:57.194Z,10.47
2018-01-19T06:23:27.566Z,9.97
2018-01-19T06:25:57.127Z,9.63
2018-01-19T06:28:26.658Z,9.40
2018-01-19T06:30:56.163Z,10.20
2018-01-19T06:33:26.906Z,10.80
2018-01-19T06:35:57.167Z,10.53
2018-01-19T06:38:27.528Z,11.17
2018-01-19T06:40:57.012Z,11.40
2018-01-19T06:43:27.005Z,10.53
2018-01-19T06:45:56.503Z,10.90
2018-01-19T06:48:26.088Z,11.37
2018-01-19T06:50:56.859Z,12.07
2018-01-19T06:53:26.347Z,12.30
2018-01-19T06:55:58.387Z,13.60
2018-01-19T06:58:27.868Z,12.90
2018-01-19T07:00:58.328Z,14.13
2018-01-19T07:03:28.068Z,13.83
2018-01-19T07:05:58.925Z,13.47
2018-01-19T07:08:28.438Z,13.27
2018-01-19T07:11:00.313Z,13.07
2018-01-19T07:13:29.920Z,11.20
2018-01-19T07:16:00.942Z,12.13
2018-01-19T07:18:30.458Z,12.70
2018-01-19T07:21:00.659Z,11.17
2018-01-19T07:23:30.610Z,11.53
2018-01-19T07:26:00.522Z,10.90
2018-01-19T07:28:30.095Z,10.73
2018-01-19T07:31:00.365Z,10.60
2018-01-19T07:33:30.041Z,11.33
2018-01-19T07:36:00.508Z,11.63
2018-01-19T07:38:30.691Z,11.07
2018-01-19T07:41:00.030Z,10.90
2018-01-19T07:43:29.524Z,10.73
2018-01-19T07:46:00.897Z,13.30
2018-01-19T07:48:30.478Z,12.73
2018-01-19T07:51:01.254Z,13.57
2018-01-19T07:53:30.814Z,13.00
2018-01-19T07:56:01.241Z,14.00
2018-01-19T07:58:30.793Z,14.90
2018-01-19T08:01:00.331Z,14.00
2018-01-19T08:03:29.969Z,14.13
2018-01-19T08:06:01.072Z,13.63
2018-01-19T08:08:30.564Z,13.53
2018-01-19T08:11:00.822Z,13.13
2018-01-19T08:13:30.775Z,13.43
2018-01-19T08:16:00.668Z,12.20
2018-01-19T08:18:30.640Z,12.40
2018-01-19T08:21:00.188Z,11.47
2018-01-19T08:23:29.735Z,11.17
2018-01-19T08:25:59.323Z,10.73
2018-01-19T08:28:29.141Z,10.23
2018-01-19T08:30:58.628Z,9.53
2018-01-19T08:33:28.119Z,9.73
2018-01-19T08:35:57.680Z,9.47
2018-01-19T08:38:27.304Z,9.13
2018-01-19T08:40:57.137Z,8.87
2018-01-19T08:43:27.390Z,9.37
2018-01-19T08:45:56.940Z,9.27
2018-01-19T08:48:28.986Z,8.60
2018-01-19T08:50:58.615Z,9.10
2018-01-19T08:53:28.173Z,9.03
2018-01-19T08:55:57.717Z,10.13
2018-01-19T08:58:27.212Z,10.90
2018-01-19T09:00:57.521Z,10.93
2018-01-19T09:03:27.025Z,11.07
2018-01-19T09:05:56.559Z,11.87
2018-01-19T09:08:26.076Z,12.10
2018-01-19T09:10:55.595Z,12.40
2018-01-19T09:13:26.216Z,13.03
2018-01-19T09:15:55.708Z,12.77
2018-01-19T09:18:25.209Z,12.47
2018-01-19T09:20:57.258Z,13.17
2018-01-19T09:23:26.908Z,11.37
2018-01-19T09:25:56.395Z,11.50
2018-01-19T09:28:25.900Z,9.67
2018-01-19T09:30:55.441Z,10.73
2018-01-19T09:33:24.921Z,9.97
2018-01-19T09:35:56.409Z,9.27
2018-01-19T09:38:25.932Z,9.30
2018-01-19T09:40:55.429Z,7.50
2018-01-19T09:43:24.755Z,9.37
2018-01-19T09:45:54.299Z,7.90
2018-01-19T09:48:25.917Z,9.80
2018-01-19T09:50:56.855Z,8.60
2018-01-19T09:53:26.375Z,8.47
2018-01-19T09:55:55.879Z,8.53
2018-01-19T09:58:25.378Z,8.60
2018-01-19T10:00:54.893Z,8.97
2018-01-19T10:03:26.538Z,9.47
2018-01-19T10:05:55.690Z,8.90
2018-01-19T10:08:24.839Z,8.77
2018-01-19T10:10:55.375Z,8.47
2018-01-19T10:13:25.343Z,8.27
2018-01-19T10:15:54.710Z,9.80
2018-01-19T10:18:24.229Z,8.97
2018-01-19T10:20:55.617Z,9.90
2018-01-19T10:23:25.115Z,9.20
2018-01-19T10:25:55.382Z,8.00
2018-01-19T10:28:24.863Z,9.97
2018-01-19T10:30:56.239Z,9.03
2018-01-19T10:33:25.738Z,8.77
2018-01-19T10:35:55.258Z,9.07
2018-01-19T10:38:25.856Z,8.40
2018-01-19T10:40:55.839Z,7.40
2018-01-19T10:43:25.331Z,8.90
2018-01-19T10:45:54.804Z,8.37
2018-01-19T10:48:25.457Z,9.63
2018-01-19T10:50:55.706Z,8.97
2018-01-19T10:53:25.987Z,8.50
2018-01-19T10:55:55.492Z,9.93
2018-01-19T10:58:25.037Z,8.73
2018-01-19T11:00:56.536Z,9.93
2018-01-19T11:03:26.132Z,9.53
2018-01-19T11:05:55.685Z,10.17
2018-01-19T11:08:25.345Z,8.00
2018-01-19T11:10:55.203Z,9.13
2018-01-19T11:13:24.698Z,8.10
2018-01-19T11:15:54.236Z,8.87
2018-01-19T11:18:23.762Z,8.60
2018-01-19T11:20:53.311Z,9.30
2018-01-19T11:23:23.156Z,9.63
2018-01-19T11:25:53.011Z,10.40
2018-01-19T11:28:22.496Z,10.20
2018-01-19T11:30:52.011Z,8.90
2018-01-19T11:33:21.511Z,9.03
2018-01-19T11:35:51.018Z,10.07
2018-01-19T11:38:20.516Z,9.40
2018-01-19T11:40:50.123Z,9.07
2018-01-19T11:43:19.641Z,10.93
2018-01-19T11:45:51.988Z,9.57
2018-01-19T11:48:21.476Z,7.97
2018-01-19T11:50:53.177Z,8.07
2018-01-19T11:53:25.822Z,8.63
2018-01-19T11:55:55.305Z,7.70
2018-01-19T11:58:24.854Z,10.03
2018-01-19T12:00:56.381Z,8.47
2018-01-19T12:03:26.272Z,7.97
2018-01-19T12:05:56.888Z,7.80
2018-01-19T12:08:26.363Z,8.47
2018-01-19T12:10:55.962Z,8.20
2018-01-19T12:13:25.453Z,7.13
2018-01-19T12:15:54.964Z,8.17
2018-01-19T12:18:26.185Z,8.03
2018-01-19T12:20:55.668Z,7.83
2018-01-19T12:23:25.164Z,8.13
2018-01-19T12:25:56.015Z,8.80
2018-01-19T12:28:25.512Z,8.00
2018-01-19T12:30:55.017Z,8.03
2018-01-19T12:33:26.495Z,7.87
2018-01-19T12:35:55.994Z,6.77
2018-01-19T12:38:25.485Z,7.00
2018-01-19T12:40:56.063Z,5.87
2018-01-19T12:43:26.019Z,6.53
2018-01-19T12:45:55.192Z,6.80
2018-01-19T12:48:26.691Z,7.00
2018-01-19T12:50:56.191Z,6.53
2018-01-19T12:53:25.706Z,6.63
2018-01-19T12:55:55.245Z,8.10
2018-01-19T12:58:26.778Z,6.03
2018-01-19T13:00:56.509Z,7.53
2018-01-19T13:03:26.014Z,6.57
2018-01-19T13:05:55.532Z,6.73
2018-01-19T13:08:25.049Z,6.80
2018-01-19T13:10:55.416Z,7.37
2018-01-19T13:13:25.027Z,6.37
2018-01-19T13:15:56.672Z,6.47
2018-01-19T13:18:26.995Z,6.50
2018-01-19T13:20:56.600Z,6.03
2018-01-19T13:23:27.052Z,6.13
2018-01-19T13:25:56.661Z,6.53
2018-01-19T13:28:26.142Z,4.53
2018-01-19T13:30:55.650Z,5.40
2018-01-19T13:33:25.156Z,4.90
2018-01-19T13:35:56.477Z,4.70
2018-01-19T13:38:25.984Z,5.23
2018-01-19T13:40:55.480Z,4.63
2018-01-19T13:43:24.996Z,4.50
2018-01-19T13:45:56.476Z,4.73
2018-01-19T13:48:25.779Z,4.83
2018-01-19T13:50:55.252Z,5.67
2018-01-19T13:53:26.707Z,5.00
2018-01-19T13:55:56.195Z,4.53
2018-01-19T13:58:25.672Z,5.00
2018-01-19T14:00:55.527Z,4.57
2018-01-19T14:03:26.724Z,5.13
2018-01-19T14:05:56.715Z,5.80
2018-01-19T14:08:26.268Z,5.43
2018-01-19T14:10:56.411Z,5.50
2018-01-19T14:13:25.908Z,5.27
2018-01-19T14:15:55.400Z,5.20
2018-01-19T14:18:24.886Z,5.20
2018-01-19T14:20:55.076Z,6.07
2018-01-19T14:23:27.140Z,3.30
2018-01-19T14:25:56.868Z,3.00
2018-01-19T14:28:26.414Z,4.57
2018-01-19T14:30:55.897Z,4.97
2018-01-19T14:33:26.018Z,5.10
2018-01-19T14:35:55.480Z,5.60
2018-01-19T14:38:24.984Z,6.37
2018-01-19T14:40:56.653Z,5.90
2018-01-19T14:43:26.299Z,6.77
2018-01-19T14:45:55.836Z,7.53
2018-01-19T14:48:25.139Z,7.30
2018-01-19T14:50:55.405Z,8.37
2018-01-19T14:53:25.658Z,8.77
2018-01-19T14:55:55.142Z,9.07
2018-01-19T14:58:26.016Z,8.07
2018-01-19T15:00:55.592Z,8.53
2018-01-19T15:03:25.221Z,7.63
2018-01-19T15:05:55.826Z,8.70
2018-01-19T15:08:25.297Z,5.40
2018-01-19T15:10:55.451Z,4.20
2018-01-19T15:13:24.928Z,4.00
2018-01-19T15:15:56.830Z,3.30
2018-01-19T15:18:26.313Z,3.90
2018-01-19T15:20:56.141Z,3.87
2018-01-19T15:23:25.725Z,4.17
2018-01-19T15:25:55.220Z,3.37
2018-01-19T15:28:26.831Z,3.50
2018-01-19T15:30:56.626Z,4.10
2018-01-19T15:33:26.104Z,5.00
2018-01-19T15:35:55.587Z,5.03
2018-01-19T15:38:25.219Z,6.30
2018-01-19T15:40:55.412Z,6.80
2018-01-19T15:43:27.133Z,8.37
2018-01-19T15:45:56.959Z,12.17
2018-01-19T15:48:27.220Z,10.50
2018-01-19T15:50:56.762Z,6.77
2018-01-19T15:53:26.256Z,6.60
2018-01-19T15:55:55.832Z,6.37
2018-01-19T15:58:25.521Z,6.50
2018-01-19T16:00:55.044Z,6.87
2018-01-19T16:03:26.628Z,6.90
2018-01-19T16:05:56.125Z,7.03
2018-01-19T16:08:25.632Z,6.70
2018-01-19T16:10:55.646Z,5.50
2018-01-19T16:13:25.942Z,5.63
2018-01-19T16:15:55.663Z,5.57
2018-01-19T16:18:25.281Z,6.40
2018-01-19T16:20:54.766Z,6.33
2018-01-19T16:23:24.268Z,7.37
2018-01-19T16:25:56.080Z,8.43
2018-01-19T16:28:25.575Z,8.53
2018-01-19T16:30:55.092Z,8.20
2018-01-19T16:33:25.852Z,7.97
2018-01-19T16:35:55.663Z,8.73
2018-01-19T16:38:25.163Z,8.03
2018-01-19T16:40:56.569Z,9.17
2018-01-19T16:43:26.044Z,9.37
2018-01-19T16:45:55.567Z,9.93
2018-01-19T16:48:25.209Z,10.13
2018-01-19T16:50:56.743Z,10.37
2018-01-19T16:53:27.002Z,10.83
2018-01-19T16:55:56.516Z,12.47
2018-01-19T16:58:26.009Z,9.73
2018-01-19T17:00:56.065Z,10.30
2018-01-19T17:03:25.968Z,9.80
2018-01-19T17:05:56.024Z,10.20
2018-01-19T17:08:25.546Z,11.00
2018-01-19T17:10:55.076Z,11.17
2018-01-19T17:13:27.749Z,9.97
2018-01-19T17:15:57.238Z,12.90
2018-01-19T17:18:26.728Z,11.33
2018-01-19T17:20:56.794Z,11.27
2018-01-19T17:23:25.988Z,11.23
2018-01-19T17:25:56.666Z,12.83
2018-01-19T17:28:26.354Z,12.20
2018-01-19T17:30:56.876Z,13.23
2018-01-19T17:33:26.401Z,13.33
2018-01-19T17:35:55.923Z,14.67
2018-01-19T17:38:25.464Z,14.00
2018-01-19T17:40:55.020Z,14.07
2018-01-19T17:43:24.523Z,14.60
2018-01-19T17:45:57.264Z,14.87
2018-01-19T17:48:27.634Z,13.73
2018-01-19T17:50:56.839Z,14.57
2018-01-19T17:53:26.315Z,13.40
2018-01-19T17:55:56.331Z,15.20
2018-01-19T17:58:25.872Z,14.67
2018-01-19T18:00:56.136Z,16.30
2018-01-19T18:03:25.852Z,15.50
2018-01-19T18:05:56.461Z,15.23
2018-01-19T18:08:26.040Z,16.47
2018-01-19T18:10:57.374Z,15.60
2018-01-19T18:13:26.870Z,14.43
2018-01-19T18:15:58.214Z,15.00
2018-01-19T18:18:27.821Z,13.97
2018-01-19T18:20:59.241Z,14.43
2018-01-19T18:23:29.198Z,14.70
2018-01-19T18:26:00.733Z,15.07
2018-01-19T18:28:30.505Z,15.50
2018-01-19T18:31:00.128Z,14.77
2018-01-19T18:33:30.912Z,14.93
2018-01-19T18:36:00.680Z,15.13
2018-01-19T18:38:30.511Z,14.77
2018-01-19T18:41:00.902Z,15.40
2018-01-19T18:43:30.490Z,14.90
2018-01-19T18:46:00.160Z,14.57
2018-01-19T18:48:30.169Z,13.93
2018-01-19T18:51:00.491Z,14.80
2018-01-19T18:53:30.228Z,13.57
2018-01-19T18:56:00.235Z,14.10
2018-01-19T18:58:29.731Z,13.90
2018-01-19T19:01:00.788Z,14.57
2018-01-19T19:03:30.629Z,14.03
2018-01-19T19:06:00.738Z,13.43
2018-01-19T19:08:30.861Z,15.40
2018-01-19T19:11:00.353Z,13.83
2018-01-19T19:13:33.124Z,14.73
2018-01-19T19:16:03.482Z,14.73
2018-01-19T19:18:33.448Z,15.20
2018-01-19T19:21:03.016Z,14.97
2018-01-19T19:23:32.676Z,17.17
2018-01-19T19:26:02.425Z,16.43
2018-01-19T19:28:33.371Z,15.93
2018-01-19T19:31:03.436Z,17.37
2018-01-19T19:33:32.976Z,18.43
2018-01-19T19:36:02.870Z,16.93
2018-01-19T19:38:32.501Z,17.67
2018-01-19T19:41:02.215Z,18.60
2018-01-19T19:43:32.312Z,18.43
2018-01-19T19:46:01.829Z,18.90
2018-01-19T19:48:31.478Z,16.90
2018-01-19T19:51:00.961Z,15.50
2018-01-19T19:53:30.693Z,15.10
2018-01-19T19:56:00.195Z,14.27
2018-01-19T19:58:29.778Z,13.20
2018-01-19T20:00:59.342Z,14.00
2018-01-19T20:03:30.329Z,12.63
2018-01-19T20:05:59.844Z,11.67
2018-01-19T20:08:29.076Z,12.07
2018-01-19T20:10:58.613Z,11.13
2018-01-19T20:13:28.469Z,13.00
2018-01-19T20:15:58.212Z,13.97
2018-01-19T20:18:27.709Z,15.00
2018-01-19T20:20:57.214Z,14.77
2018-01-19T20:23:26.747Z,16.07
2018-01-19T20:25:56.236Z,17.47
2018-01-19T20:28:26.824Z,18.80
2018-01-19T20:30:56.351Z,18.57
2018-01-19T20:33:26.584Z,18.70
2018-01-19T20:35:56.151Z,17.80
2018-01-19T20:38:25.631Z,19.07
2018-01-19T20:40:55.127Z,19.33
2018-01-19T20:43:26.268Z,19.57
2018-01-19T20:45:55.729Z,19.93
2018-01-19T20:48:25.241Z,21.17
2018-01-19T20:50:56.173Z,20.97
2018-01-19T20:53:26.820Z,18.73
2018-01-19T20:55:56.308Z,17.57
2018-01-19T20:58:26.060Z,15.93
2018-01-19T21:00:55.662Z,15.90
2018-01-19T21:03:25.424Z,14.53
2018-01-19T21:05:55.170Z,13.97
2018-01-19T21:08:26.768Z,14.07
2018-01-19T21:10:56.496Z,15.17
2018-01-19T21:13:25.993Z,13.10
2018-01-19T21:15:55.507Z,11.93
2018-01-19T21:18:25.031Z,12.67
2018-01-19T21:20:56.191Z,14.03
2018-01-19T21:23:25.663Z,11.70
2018-01-19T21:25:55.173Z,10.97
2018-01-19T21:28:27.267Z,11.60
2018-01-19T21:30:57.080Z,11.63
2018-01-19T21:33:26.584Z,10.63
2018-01-19T21:35:56.088Z,11.13
2018-01-19T21:38:25.607Z,11.33
2018-01-19T21:40:55.097Z,11.73
2018-01-19T21:43:26.149Z,10.07
2018-01-19T21:45:55.656Z,10.10
2018-01-19T21:48:25.166Z,11.20
2018-01-19T21:50:56.804Z,12.30
2018-01-19T21:53:26.291Z,12.63
2018-01-19T21:55:55.814Z,14.07
2018-01-19T21:58:25.340Z,12.13
2018-01-19T22:00:54.858Z,12.27
2018-01-19T22:03:26.315Z,12.83
2018-01-19T22:05:55.799Z,12.97
2018-01-19T22:08:25.303Z,13.20
2018-01-19T22:10:54.805Z,13.93
2018-01-19T22:13:25.079Z,14.27
2018-01-19T22:15:56.063Z,14.40
2018-01-19T22:18:25.588Z,14.57
2018-01-19T22:20:55.090Z,13.20
2018-01-19T22:23:26.777Z,13.83
2018-01-19T22:25:56.603Z,13.20
2018-01-19T22:28:26.124Z,12.97
2018-01-19T22:30:55.789Z,13.43
2018-01-19T22:33:26.533Z,12.33
2018-01-19T22:35:56.140Z,10.87
2018-01-19T22:38:25.680Z,10.87
2018-01-19T22:40:55.184Z,12.53
2018-01-19T22:43:26.316Z,12.30
2018-01-19T22:45:55.940Z,11.87
2018-01-19T22:48:25.914Z,11.73
2018-01-19T22:50:55.429Z,12.10
2018-01-19T22:53:26.164Z,11.33
2018-01-19T22:55:55.830Z,10.83
2018-01-19T22:58:25.395Z,10.90
2018-01-19T23:00:54.903Z,10.93
2018-01-19T23:03:26.640Z,10.77
2018-01-19T23:05:55.875Z,11.13
2018-01-19T23:08:25.428Z,13.00
2018-01-19T23:10:55.537Z,11.97
2018-01-19T23:13:26.529Z,13.53
2018-01-19T23:15:56.443Z,13.03
2018-01-19T23:18:26.064Z,13.53
2018-01-19T23:20:55.581Z,12.70
2018-01-19T23:23:25.072Z,14.30
2018-01-19T23:25:56.599Z,15.33
2018-01-19T23:28:26.717Z,15.60
2018-01-19T23:30:56.204Z,16.13
2018-01-19T23:33:25.702Z,16.37
2018-01-19T23:35:55.180Z,15.93
2018-01-19T23:38:26.844Z,16.77
2018-01-19T23:40:56.335Z,16.73
2018-01-19T23:43:25.840Z,14.83
2018-01-19T23:45:55.543Z,14.90
2018-01-19T23:48:25.049Z,14.23
2018-01-19T23:50:56.508Z,12.67
2018-01-19T23:53:25.957Z,11.53
2018-01-19T23:55:55.451Z,11.37
2018-01-19T23:58:24.968Z,10.03
